sensor_id;sensor_type;location;lat;lon;timestamp;pressure;altitude;pressure_sealevel;temperature;humidity
70841;BME280;58465;51.534;9.934;2023-08-21T00:01:33;100581.81;;;26.38;59.68
70841;BME280;58465;51.534;9.934;2023-08-21T00:03:58;100578.44;;;26.34;59.22
70841;BME280;58465;51.534;9.934;2023-08-21T00:06:24;100585.94;;;26.32;58.47
70841;BME280;58465;51.534;9.934;2023-08-21T00:08:49;100601.72;;;26.29;58.76
70841;BME280;58465;51.534;9.934;2023-08-21T00:11:14;100589.66;;;26.31;59.34
70841;BME280;58465;51.534;9.934;2023-08-21T00:13:39;100596.00;;;26.32;58.25
70841;BME280;58465;51.534;9.934;2023-08-21T00:16:04;100600.84;;;26.28;58.63
70841;BME280;58465;51.534;9.934;2023-08-21T00:18:29;100598.09;;;26.28;58.72
70841;BME280;58465;51.534;9.934;2023-08-21T00:20:55;100579.69;;;26.30;58.76
70841;BME280;58465;51.534;9.934;2023-08-21T00:23:20;100573.84;;;26.35;58.68
70841;BME280;58465;51.534;9.934;2023-08-21T00:25:46;100565.50;;;26.36;58.84
70841;BME280;58465;51.534;9.934;2023-08-21T00:28:11;100568.50;;;26.33;58.30
70841;BME280;58465;51.534;9.934;2023-08-21T00:30:37;100571.06;;;26.23;58.00
70841;BME280;58465;51.534;9.934;2023-08-21T00:33:02;100576.91;;;26.19;57.78
70841;BME280;58465;51.534;9.934;2023-08-21T00:35:27;100571.66;;;26.16;58.52
70841;BME280;58465;51.534;9.934;2023-08-21T00:37:52;100571.91;;;26.13;58.26
70841;BME280;58465;51.534;9.934;2023-08-21T00:40:18;100568.19;;;26.14;58.15
70841;BME280;58465;51.534;9.934;2023-08-21T00:42:43;100568.03;;;26.15;57.94
70841;BME280;58465;51.534;9.934;2023-08-21T00:45:08;100570.16;;;26.12;58.41
70841;BME280;58465;51.534;9.934;2023-08-21T00:47:34;100571.03;;;26.12;58.23
70841;BME280;58465;51.534;9.934;2023-08-21T00:49:59;100570.06;;;26.13;58.80
70841;BME280;58465;51.534;9.934;2023-08-21T00:52:25;100569.78;;;26.16;58.89
70841;BME280;58465;51.534;9.934;2023-08-21T00:54:50;100569.41;;;26.10;58.37
70841;BME280;58465;51.534;9.934;2023-08-21T00:57:15;100577.25;;;26.14;58.20
70841;BME280;58465;51.534;9.934;2023-08-21T00:59:40;100571.03;;;26.12;58.74
70841;BME280;58465;51.534;9.934;2023-08-21T01:02:06;100563.81;;;26.11;58.82
70841;BME280;58465;51.534;9.934;2023-08-21T01:04:31;100559.81;;;26.04;58.81
70841;BME280;58465;51.534;9.934;2023-08-21T01:06:56;100554.72;;;26.11;58.96
70841;BME280;58465;51.534;9.934;2023-08-21T01:11:52;100547.84;;;26.05;58.65
70841;BME280;58465;51.534;9.934;2023-08-21T01:16:47;100556.47;;;26.12;58.95
70841;BME280;58465;51.534;9.934;2023-08-21T01:22:00;100560.19;;;26.00;58.73
70841;BME280;58465;51.534;9.934;2023-08-21T01:24:26;100562.16;;;25.98;58.96
70841;BME280;58465;51.534;9.934;2023-08-21T01:26:51;100556.69;;;25.98;59.18
70841;BME280;58465;51.534;9.934;2023-08-21T01:29:16;100554.94;;;25.97;59.04
70841;BME280;58465;51.534;9.934;2023-08-21T01:31:41;100543.59;;;25.90;59.19
70841;BME280;58465;51.534;9.934;2023-08-21T01:34:11;100555.41;;;25.91;59.31
70841;BME280;58465;51.534;9.934;2023-08-21T01:36:39;100551.31;;;25.85;59.18
70841;BME280;58465;51.534;9.934;2023-08-21T01:39:04;100553.56;;;25.91;59.58
70841;BME280;58465;51.534;9.934;2023-08-21T01:41:30;100553.06;;;25.97;59.49
70841;BME280;58465;51.534;9.934;2023-08-21T01:43:55;100554.94;;;25.85;59.29
70841;BME280;58465;51.534;9.934;2023-08-21T01:46:20;100559.00;;;25.80;59.93
70841;BME280;58465;51.534;9.934;2023-08-21T01:48:45;100558.34;;;25.76;59.19
70841;BME280;58465;51.534;9.934;2023-08-21T01:51:11;100548.66;;;25.72;59.27
70841;BME280;58465;51.534;9.934;2023-08-21T01:53:36;100548.28;;;25.77;59.42
70841;BME280;58465;51.534;9.934;2023-08-21T01:56:01;100545.53;;;25.77;59.50
70841;BME280;58465;51.534;9.934;2023-08-21T01:58:26;100547.78;;;25.72;59.31
70841;BME280;58465;51.534;9.934;2023-08-21T02:00:51;100556.63;;;25.75;59.60
70841;BME280;58465;51.534;9.934;2023-08-21T02:03:17;100553.25;;;25.72;60.04
70841;BME280;58465;51.534;9.934;2023-08-21T02:05:42;100559.97;;;25.79;60.27
70841;BME280;58465;51.534;9.934;2023-08-21T02:08:08;100560.97;;;25.78;59.97
70841;BME280;58465;51.534;9.934;2023-08-21T02:10:34;100563.00;;;25.87;60.09
70841;BME280;58465;51.534;9.934;2023-08-21T02:12:59;100561.72;;;25.80;59.47
70841;BME280;58465;51.534;9.934;2023-08-21T02:15:24;100554.88;;;25.74;59.59
70841;BME280;58465;51.534;9.934;2023-08-21T02:17:49;100549.88;;;25.68;59.58
70841;BME280;58465;51.534;9.934;2023-08-21T02:20:15;100555.22;;;25.70;59.53
70841;BME280;58465;51.534;9.934;2023-08-21T02:22:40;100559.94;;;25.68;59.93
70841;BME280;58465;51.534;9.934;2023-08-21T02:25:05;100561.56;;;25.70;59.52
70841;BME280;58465;51.534;9.934;2023-08-21T02:27:30;100563.81;;;25.76;59.54
70841;BME280;58465;51.534;9.934;2023-08-21T02:29:55;100553.59;;;25.67;59.25
70841;BME280;58465;51.534;9.934;2023-08-21T02:32:21;100554.72;;;25.65;59.70
70841;BME280;58465;51.534;9.934;2023-08-21T02:34:46;100547.13;;;25.68;59.61
70841;BME280;58465;51.534;9.934;2023-08-21T02:37:11;100552.97;;;25.64;59.95
70841;BME280;58465;51.534;9.934;2023-08-21T02:39:36;100551.34;;;25.61;59.64
70841;BME280;58465;51.534;9.934;2023-08-21T02:42:01;100552.31;;;25.60;59.90
70841;BME280;58465;51.534;9.934;2023-08-21T02:44:26;100557.00;;;25.58;59.58
70841;BME280;58465;51.534;9.934;2023-08-21T02:46:52;100553.53;;;25.56;59.44
70841;BME280;58465;51.534;9.934;2023-08-21T02:49:17;100541.72;;;25.56;59.32
70841;BME280;58465;51.534;9.934;2023-08-21T02:51:42;100545.88;;;25.61;59.13
70841;BME280;58465;51.534;9.934;2023-08-21T02:54:07;100544.31;;;25.57;59.62
70841;BME280;58465;51.534;9.934;2023-08-21T02:56:32;100553.97;;;25.63;59.44
70841;BME280;58465;51.534;9.934;2023-08-21T02:58:58;100555.06;;;25.60;59.43
70841;BME280;58465;51.534;9.934;2023-08-21T03:01:23;100553.97;;;25.50;59.71
70841;BME280;58465;51.534;9.934;2023-08-21T03:03:48;100553.38;;;25.46;59.27
70841;BME280;58465;51.534;9.934;2023-08-21T03:06:13;100557.38;;;25.54;59.77
70841;BME280;58465;51.534;9.934;2023-08-21T03:08:38;100551.34;;;25.48;58.97
70841;BME280;58465;51.534;9.934;2023-08-21T03:11:03;100542.44;;;25.46;58.89
70841;BME280;58465;51.534;9.934;2023-08-21T03:13:29;100549.75;;;25.46;59.29
70841;BME280;58465;51.534;9.934;2023-08-21T03:15:54;100551.94;;;25.41;58.21
70841;BME280;58465;51.534;9.934;2023-08-21T03:18:19;100542.66;;;25.43;58.39
70841;BME280;58465;51.534;9.934;2023-08-21T03:20:44;100547.34;;;25.41;58.75
70841;BME280;58465;51.534;9.934;2023-08-21T03:23:10;100550.09;;;25.41;59.86
70841;BME280;58465;51.534;9.934;2023-08-21T03:25:36;100548.00;;;25.45;59.01
70841;BME280;58465;51.534;9.934;2023-08-21T03:28:01;100549.38;;;25.50;59.57
70841;BME280;58465;51.534;9.934;2023-08-21T03:30:26;100551.63;;;25.45;60.32
70841;BME280;58465;51.534;9.934;2023-08-21T03:32:51;100551.34;;;25.61;60.68
70841;BME280;58465;51.534;9.934;2023-08-21T03:35:16;100536.59;;;25.51;58.74
70841;BME280;58465;51.534;9.934;2023-08-21T03:37:41;100533.91;;;25.38;58.69
70841;BME280;58465;51.534;9.934;2023-08-21T03:40:07;100533.91;;;25.38;58.83
70841;BME280;58465;51.534;9.934;2023-08-21T03:42:32;100537.00;;;25.34;58.84
70841;BME280;58465;51.534;9.934;2023-08-21T03:44:57;100536.13;;;25.33;58.96
70841;BME280;58465;51.534;9.934;2023-08-21T03:47:22;100539.97;;;25.31;58.88
70841;BME280;58465;51.534;9.934;2023-08-21T03:49:48;100534.59;;;25.29;58.69
70841;BME280;58465;51.534;9.934;2023-08-21T03:52:13;100527.66;;;25.25;59.07
70841;BME280;58465;51.534;9.934;2023-08-21T03:54:38;100533.00;;;25.27;58.92
70841;BME280;58465;51.534;9.934;2023-08-21T03:57:03;100543.56;;;25.31;58.55
70841;BME280;58465;51.534;9.934;2023-08-21T03:59:29;100543.53;;;25.44;60.25
70841;BME280;58465;51.534;9.934;2023-08-21T04:01:54;100547.75;;;25.48;59.25
70841;BME280;58465;51.534;9.934;2023-08-21T04:04:19;100539.03;;;25.43;59.30
70841;BME280;58465;51.534;9.934;2023-08-21T04:06:44;100548.00;;;25.45;59.97
70841;BME280;58465;51.534;9.934;2023-08-21T04:09:09;100539.25;;;25.40;59.21
70841;BME280;58465;51.534;9.934;2023-08-21T04:11:35;100549.88;;;25.44;59.24
70841;BME280;58465;51.534;9.934;2023-08-21T04:14:00;100550.13;;;25.29;58.46
70841;BME280;58465;51.534;9.934;2023-08-21T04:16:26;100554.06;;;25.37;60.37
70841;BME280;58465;51.534;9.934;2023-08-21T04:18:52;100558.69;;;25.48;60.85
70841;BME280;58465;51.534;9.934;2023-08-21T04:21:17;100562.84;;;25.54;61.01
70841;BME280;58465;51.534;9.934;2023-08-21T04:23:43;100559.53;;;25.37;60.04
70841;BME280;58465;51.534;9.934;2023-08-21T04:26:08;100568.88;;;25.22;59.20
70841;BME280;58465;51.534;9.934;2023-08-21T04:28:35;100567.22;;;25.20;59.02
70841;BME280;58465;51.534;9.934;2023-08-21T04:31:00;100566.63;;;25.16;59.02
70841;BME280;58465;51.534;9.934;2023-08-21T04:33:26;100571.09;;;25.17;59.97
70841;BME280;58465;51.534;9.934;2023-08-21T04:35:51;100570.94;;;25.19;59.32
70841;BME280;58465;51.534;9.934;2023-08-21T04:38:17;100574.44;;;25.21;60.57
70841;BME280;58465;51.534;9.934;2023-08-21T04:40:42;100571.81;;;25.19;59.97
70841;BME280;58465;51.534;9.934;2023-08-21T04:43:07;100572.41;;;25.11;59.55
70841;BME280;58465;51.534;9.934;2023-08-21T04:45:32;100575.19;;;25.35;60.94
70841;BME280;58465;51.534;9.934;2023-08-21T04:47:58;100577.09;;;25.46;60.54
70841;BME280;58465;51.534;9.934;2023-08-21T04:50:23;100576.34;;;25.44;60.30
70841;BME280;58465;51.534;9.934;2023-08-21T04:52:48;100572.63;;;25.45;59.57
70841;BME280;58465;51.534;9.934;2023-08-21T04:55:14;100580.94;;;25.43;60.13
70841;BME280;58465;51.534;9.934;2023-08-21T04:57:39;100578.72;;;25.48;60.88
70841;BME280;58465;51.534;9.934;2023-08-21T05:00:04;100581.84;;;25.31;59.59
70841;BME280;58465;51.534;9.934;2023-08-21T05:02:30;100588.41;;;25.29;59.83
70841;BME280;58465;51.534;9.934;2023-08-21T05:04:55;100579.34;;;25.28;59.62
70841;BME280;58465;51.534;9.934;2023-08-21T05:07:20;100586.50;;;25.18;59.16
70841;BME280;58465;51.534;9.934;2023-08-21T05:09:45;100591.78;;;25.08;59.63
70841;BME280;58465;51.534;9.934;2023-08-21T05:12:10;100590.22;;;25.17;60.22
70841;BME280;58465;51.534;9.934;2023-08-21T05:14:35;100585.25;;;25.35;58.74
70841;BME280;58465;51.534;9.934;2023-08-21T05:17:01;100594.53;;;25.32;58.71
70841;BME280;58465;51.534;9.934;2023-08-21T05:19:27;100593.78;;;25.30;58.64
70841;BME280;58465;51.534;9.934;2023-08-21T05:21:52;100593.69;;;25.19;58.56
70841;BME280;58465;51.534;9.934;2023-08-21T05:24:17;100585.81;;;25.27;58.29
70841;BME280;58465;51.534;9.934;2023-08-21T05:26:42;100587.06;;;25.47;57.58
70841;BME280;58465;51.534;9.934;2023-08-21T05:29:07;100590.78;;;25.46;57.79
70841;BME280;58465;51.534;9.934;2023-08-21T05:31:32;100587.53;;;25.28;59.05
70841;BME280;58465;51.534;9.934;2023-08-21T05:33:58;100584.38;;;24.98;59.84
70841;BME280;58465;51.534;9.934;2023-08-21T05:36:23;100582.34;;;25.12;59.32
70841;BME280;58465;51.534;9.934;2023-08-21T05:38:48;100584.50;;;25.20;59.07
70841;BME280;58465;51.534;9.934;2023-08-21T05:41:16;100581.47;;;25.12;59.38
70841;BME280;58465;51.534;9.934;2023-08-21T05:43:41;100589.38;;;25.04;59.83
70841;BME280;58465;51.534;9.934;2023-08-21T05:46:07;100591.44;;;25.13;59.41
70841;BME280;58465;51.534;9.934;2023-08-21T05:48:32;100593.47;;;25.22;58.99
70841;BME280;58465;51.534;9.934;2023-08-21T05:50:58;100603.09;;;25.28;58.54
70841;BME280;58465;51.534;9.934;2023-08-21T05:53:23;100605.88;;;25.39;58.13
70841;BME280;58465;51.534;9.934;2023-08-21T05:55:48;100596.81;;;25.38;57.57
70841;BME280;58465;51.534;9.934;2023-08-21T05:58:13;100607.13;;;25.35;57.89
70841;BME280;58465;51.534;9.934;2023-08-21T06:00:39;100606.41;;;25.44;57.74
70841;BME280;58465;51.534;9.934;2023-08-21T06:03:04;100603.31;;;25.48;57.82
70841;BME280;58465;51.534;9.934;2023-08-21T06:05:29;100607.03;;;25.60;57.22
70841;BME280;58465;51.534;9.934;2023-08-21T06:07:55;100597.72;;;25.63;57.01
70841;BME280;58465;51.534;9.934;2023-08-21T06:10:20;100608.56;;;25.64;56.88
70841;BME280;58465;51.534;9.934;2023-08-21T06:12:45;100608.00;;;25.35;57.47
70841;BME280;58465;51.534;9.934;2023-08-21T06:15:10;100621.00;;;25.32;57.69
70841;BME280;58465;51.534;9.934;2023-08-21T06:17:36;100623.59;;;25.46;56.80
70841;BME280;58465;51.534;9.934;2023-08-21T06:20:01;100608.75;;;25.37;57.13
70841;BME280;58465;51.534;9.934;2023-08-21T06:22:28;100609.91;;;25.46;57.17
70841;BME280;58465;51.534;9.934;2023-08-21T06:24:53;100614.97;;;25.39;57.63
70841;BME280;58465;51.534;9.934;2023-08-21T06:27:18;100611.41;;;25.26;58.07
70841;BME280;58465;51.534;9.934;2023-08-21T06:29:43;100619.72;;;25.25;58.13
70841;BME280;58465;51.534;9.934;2023-08-21T06:32:08;100624.97;;;25.28;58.08
70841;BME280;58465;51.534;9.934;2023-08-21T06:34:34;100623.34;;;25.49;57.22
70841;BME280;58465;51.534;9.934;2023-08-21T06:36:59;100621.75;;;25.46;56.97
70841;BME280;58465;51.534;9.934;2023-08-21T06:39:25;100618.47;;;25.41;56.58
70841;BME280;58465;51.534;9.934;2023-08-21T06:41:50;100615.94;;;25.38;56.32
70841;BME280;58465;51.534;9.934;2023-08-21T06:44:16;100635.66;;;25.31;56.62
70841;BME280;58465;51.534;9.934;2023-08-21T06:46:41;100623.34;;;25.49;56.45
70841;BME280;58465;51.534;9.934;2023-08-21T06:49:06;100623.13;;;25.52;56.10
70841;BME280;58465;51.534;9.934;2023-08-21T06:51:32;100623.41;;;25.36;56.32
70841;BME280;58465;51.534;9.934;2023-08-21T06:53:57;100626.25;;;25.35;56.58
70841;BME280;58465;51.534;9.934;2023-08-21T06:56:23;100628.25;;;25.57;55.70
70841;BME280;58465;51.534;9.934;2023-08-21T06:58:48;100625.09;;;25.63;55.17
70841;BME280;58465;51.534;9.934;2023-08-21T07:01:13;100613.38;;;25.48;55.16
70841;BME280;58465;51.534;9.934;2023-08-21T07:03:38;100625.31;;;25.60;54.94
70841;BME280;58465;51.534;9.934;2023-08-21T07:06:04;100626.47;;;25.68;55.05
70841;BME280;58465;51.534;9.934;2023-08-21T07:08:29;100616.78;;;25.64;55.15
70841;BME280;58465;51.534;9.934;2023-08-21T07:10:54;100617.94;;;25.73;54.70
70841;BME280;58465;51.534;9.934;2023-08-21T07:13:19;100620.66;;;25.73;54.75
70841;BME280;58465;51.534;9.934;2023-08-21T07:15:45;100626.34;;;25.70;54.84
70841;BME280;58465;51.534;9.934;2023-08-21T07:18:11;100620.06;;;25.80;54.55
70841;BME280;58465;51.534;9.934;2023-08-21T07:20:37;100618.66;;;25.99;53.70
70841;BME280;58465;51.534;9.934;2023-08-21T07:23:03;100624.16;;;26.10;53.57
70841;BME280;58465;51.534;9.934;2023-08-21T07:25:28;100620.91;;;26.05;53.71
70841;BME280;58465;51.534;9.934;2023-08-21T07:27:54;100626.13;;;26.08;53.50
70841;BME280;58465;51.534;9.934;2023-08-21T07:30:19;100626.53;;;26.14;53.53
70841;BME280;58465;51.534;9.934;2023-08-21T07:32:45;100625.41;;;26.17;53.55
70841;BME280;58465;51.534;9.934;2023-08-21T07:35:10;100623.56;;;26.17;53.17
70841;BME280;58465;51.534;9.934;2023-08-21T07:37:35;100624.31;;;26.19;53.31
70841;BME280;58465;51.534;9.934;2023-08-21T07:40:01;100620.81;;;26.17;53.24
70841;BME280;58465;51.534;9.934;2023-08-21T07:42:26;100617.97;;;26.19;53.80
70841;BME280;58465;51.534;9.934;2023-08-21T07:44:52;100623.44;;;26.19;53.47
70841;BME280;58465;51.534;9.934;2023-08-21T07:47:17;100618.84;;;26.19;53.32
70841;BME280;58465;51.534;9.934;2023-08-21T07:49:42;100616.88;;;26.21;52.95
70841;BME280;58465;51.534;9.934;2023-08-21T07:52:08;100619.34;;;26.24;53.04
70841;BME280;58465;51.534;9.934;2023-08-21T07:54:33;100617.16;;;26.30;52.90
70841;BME280;58465;51.534;9.934;2023-08-21T07:56:58;100619.66;;;26.33;52.71
70841;BME280;58465;51.534;9.934;2023-08-21T07:59:24;100630.09;;;26.28;53.17
70841;BME280;58465;51.534;9.934;2023-08-21T08:01:49;100622.41;;;26.33;52.94
70841;BME280;58465;51.534;9.934;2023-08-21T08:04:15;100624.88;;;26.36;52.88
70841;BME280;58465;51.534;9.934;2023-08-21T08:06:41;100617.94;;;26.43;52.91
70841;BME280;58465;51.534;9.934;2023-08-21T08:09:06;100617.34;;;26.50;52.51
70841;BME280;58465;51.534;9.934;2023-08-21T08:11:32;100612.19;;;26.46;52.58
70841;BME280;58465;51.534;9.934;2023-08-21T08:13:57;100618.78;;;26.43;53.06
70841;BME280;58465;51.534;9.934;2023-08-21T08:16:22;100615.69;;;26.48;52.71
70841;BME280;58465;51.534;9.934;2023-08-21T08:18:47;100615.47;;;26.51;52.81
70841;BME280;58465;51.534;9.934;2023-08-21T08:21:13;100615.09;;;26.55;52.78
70841;BME280;58465;51.534;9.934;2023-08-21T08:23:38;100614.09;;;26.56;52.98
70841;BME280;58465;51.534;9.934;2023-08-21T08:26:04;100612.88;;;26.60;53.26
70841;BME280;58465;51.534;9.934;2023-08-21T08:28:29;100607.38;;;26.60;53.05
70841;BME280;58465;51.534;9.934;2023-08-21T08:30:54;100613.59;;;26.63;53.73
70841;BME280;58465;51.534;9.934;2023-08-21T08:33:19;100606.25;;;26.74;53.38
70841;BME280;58465;51.534;9.934;2023-08-21T08:35:44;100603.63;;;26.73;53.38
70841;BME280;58465;51.534;9.934;2023-08-21T08:38:10;100602.03;;;26.81;52.77
70841;BME280;58465;51.534;9.934;2023-08-21T08:40:36;100605.50;;;26.72;52.64
70841;BME280;58465;51.534;9.934;2023-08-21T08:43:02;100609.50;;;26.79;53.28
70841;BME280;58465;51.534;9.934;2023-08-21T08:45:30;100606.66;;;26.81;52.84
70841;BME280;58465;51.534;9.934;2023-08-21T08:47:57;100607.88;;;26.77;52.49
70841;BME280;58465;51.534;9.934;2023-08-21T08:50:24;100609.75;;;26.87;53.33
70841;BME280;58465;51.534;9.934;2023-08-21T08:52:50;100609.00;;;26.85;53.19
70841;BME280;58465;51.534;9.934;2023-08-21T08:55:15;100605.38;;;26.85;53.58
70841;BME280;58465;51.534;9.934;2023-08-21T08:57:40;100603.28;;;26.77;53.55
70841;BME280;58465;51.534;9.934;2023-08-21T09:00:06;100604.38;;;26.75;53.80
70841;BME280;58465;51.534;9.934;2023-08-21T09:02:31;100603.16;;;26.79;53.82
70841;BME280;58465;51.534;9.934;2023-08-21T09:04:56;100604.78;;;26.70;53.73
70841;BME280;58465;51.534;9.934;2023-08-21T09:07:22;100608.00;;;26.75;53.71
70841;BME280;58465;51.534;9.934;2023-08-21T09:09:47;100603.63;;;26.73;53.93
70841;BME280;58465;51.534;9.934;2023-08-21T09:12:15;100605.66;;;26.71;53.94
70841;BME280;58465;51.534;9.934;2023-08-21T09:14:40;100604.16;;;26.78;54.17
70841;BME280;58465;51.534;9.934;2023-08-21T09:17:06;100609.38;;;26.70;54.31
70841;BME280;58465;51.534;9.934;2023-08-21T09:19:31;100605.38;;;26.74;53.60
70841;BME280;58465;51.534;9.934;2023-08-21T09:21:57;100612.84;;;26.83;53.89
70841;BME280;58465;51.534;9.934;2023-08-21T09:24:22;100611.25;;;26.80;53.71
70841;BME280;58465;51.534;9.934;2023-08-21T09:26:48;100607.75;;;26.78;54.05
70841;BME280;58465;51.534;9.934;2023-08-21T09:29:14;100610.75;;;26.75;54.09
70841;BME280;58465;51.534;9.934;2023-08-21T09:31:39;100607.75;;;26.78;53.15
70841;BME280;58465;51.534;9.934;2023-08-21T09:34:04;100597.28;;;26.83;53.35
70841;BME280;58465;51.534;9.934;2023-08-21T09:36:30;100606.25;;;26.85;52.72
70841;BME280;58465;51.534;9.934;2023-08-21T09:38:55;100599.66;;;26.88;53.84
70841;BME280;58465;51.534;9.934;2023-08-21T09:41:20;100601.41;;;26.89;53.69
70841;BME280;58465;51.534;9.934;2023-08-21T09:43:46;100601.41;;;26.89;53.56
70841;BME280;58465;51.534;9.934;2023-08-21T09:46:15;100603.66;;;26.95;53.64
70841;BME280;58465;51.534;9.934;2023-08-21T09:48:41;100600.06;;;26.94;53.45
70841;BME280;58465;51.534;9.934;2023-08-21T09:51:08;100600.28;;;26.91;53.56
70841;BME280;58465;51.534;9.934;2023-08-21T09:53:34;100596.31;;;26.95;53.59
70841;BME280;58465;51.534;9.934;2023-08-21T09:56:00;100587.72;;;26.89;53.17
70841;BME280;58465;51.534;9.934;2023-08-21T09:58:28;100583.84;;;26.91;53.52
70841;BME280;58465;51.534;9.934;2023-08-21T10:00:55;100579.25;;;26.92;53.70
70841;BME280;58465;51.534;9.934;2023-08-21T10:03:21;100573.28;;;26.98;53.55
70841;BME280;58465;51.534;9.934;2023-08-21T10:05:48;100574.03;;;27.00;53.72
70841;BME280;58465;51.534;9.934;2023-08-21T10:08:14;100575.16;;;26.98;53.81
70841;BME280;58465;51.534;9.934;2023-08-21T10:10:40;100570.78;;;26.95;53.80
70841;BME280;58465;51.534;9.934;2023-08-21T10:13:06;100572.50;;;27.07;53.72
70841;BME280;58465;51.534;9.934;2023-08-21T10:15:32;100562.41;;;26.85;54.50
70841;BME280;58465;51.534;9.934;2023-08-21T10:17:58;100570.66;;;26.96;54.13
70841;BME280;58465;51.534;9.934;2023-08-21T10:20:42;100566.69;;;27.01;53.88
70841;BME280;58465;51.534;9.934;2023-08-21T10:23:07;100563.78;;;27.02;53.89
70841;BME280;58465;51.534;9.934;2023-08-21T10:25:32;100560.31;;;27.00;53.95
70841;BME280;58465;51.534;9.934;2023-08-21T10:28:06;100566.03;;;26.97;54.26
70841;BME280;58465;51.534;9.934;2023-08-21T10:30:31;100558.28;;;27.02;53.99
70841;BME280;58465;51.534;9.934;2023-08-21T10:32:57;100560.69;;;27.07;53.99
70841;BME280;58465;51.534;9.934;2023-08-21T10:35:29;100559.81;;;27.06;54.23
70841;BME280;58465;51.534;9.934;2023-08-21T10:40:36;100553.09;;;26.99;53.43
70841;BME280;58465;51.534;9.934;2023-08-21T10:43:01;100555.31;;;27.05;54.01
70841;BME280;58465;51.534;9.934;2023-08-21T10:45:28;100559.06;;;27.04;54.25
70841;BME280;58465;51.534;9.934;2023-08-21T10:47:54;100556.56;;;27.01;54.13
70841;BME280;58465;51.534;9.934;2023-08-21T10:50:20;100555.56;;;27.02;54.03
70841;BME280;58465;51.534;9.934;2023-08-21T10:52:46;100554.31;;;26.95;54.21
70841;BME280;58465;51.534;9.934;2023-08-21T10:55:14;100552.47;;;26.95;54.54
70841;BME280;58465;51.534;9.934;2023-08-21T10:57:39;100555.44;;;27.04;53.96
70841;BME280;58465;51.534;9.934;2023-08-21T11:00:08;100553.34;;;26.96;54.09
70841;BME280;58465;51.534;9.934;2023-08-21T11:02:35;100558.56;;;26.99;54.08
70841;BME280;58465;51.534;9.934;2023-08-21T11:05:00;100554.84;;;27.00;53.93
70841;BME280;58465;51.534;9.934;2023-08-21T11:07:26;100547.84;;;26.96;54.31
70841;BME280;58465;51.534;9.934;2023-08-21T11:09:51;100547.50;;;27.01;54.09
70841;BME280;58465;51.534;9.934;2023-08-21T11:12:18;100546.09;;;27.06;54.10
70841;BME280;58465;51.534;9.934;2023-08-21T11:14:44;100555.53;;;27.13;53.82
70841;BME280;58465;51.534;9.934;2023-08-21T11:17:09;100541.34;;;27.19;53.71
70841;BME280;58465;51.534;9.934;2023-08-21T11:19:35;100549.47;;;27.10;53.95
70841;BME280;58465;51.534;9.934;2023-08-21T11:22:00;100550.81;;;27.04;54.09
70841;BME280;58465;51.534;9.934;2023-08-21T11:27:03;100548.09;;;27.04;53.85
70841;BME280;58465;51.534;9.934;2023-08-21T11:29:29;100549.47;;;27.10;54.00
70841;BME280;58465;51.534;9.934;2023-08-21T11:31:55;100548.72;;;27.08;53.90
70841;BME280;58465;51.534;9.934;2023-08-21T11:34:21;100550.94;;;27.03;53.96
70841;BME280;58465;51.534;9.934;2023-08-21T11:36:46;100551.16;;;27.11;53.77
70841;BME280;58465;51.534;9.934;2023-08-21T11:39:11;100550.34;;;27.10;53.62
70841;BME280;58465;51.534;9.934;2023-08-21T11:41:52;100551.06;;;27.12;53.72
70841;BME280;58465;51.534;9.934;2023-08-21T11:44:17;100549.31;;;27.11;53.14
70841;BME280;58465;51.534;9.934;2023-08-21T11:46:42;100545.31;;;27.15;53.35
70841;BME280;58465;51.534;9.934;2023-08-21T11:49:08;100548.81;;;27.17;53.43
70841;BME280;58465;51.534;9.934;2023-08-21T11:51:39;100542.59;;;27.15;53.41
70841;BME280;58465;51.534;9.934;2023-08-21T11:54:04;100539.81;;;27.26;52.74
70841;BME280;58465;51.534;9.934;2023-08-21T11:56:30;100534.56;;;27.23;52.92
70841;BME280;58465;51.534;9.934;2023-08-21T11:58:56;100536.66;;;27.31;52.63
70841;BME280;58465;51.534;9.934;2023-08-21T12:01:23;100535.19;;;27.27;53.14
70841;BME280;58465;51.534;9.934;2023-08-21T12:03:48;100534.88;;;27.41;52.64
70841;BME280;58465;51.534;9.934;2023-08-21T12:06:19;100529.63;;;27.49;52.70
70841;BME280;58465;51.534;9.934;2023-08-21T12:08:45;100529.91;;;27.46;52.79
70841;BME280;58465;51.534;9.934;2023-08-21T12:11:10;100526.19;;;27.36;53.35
70841;BME280;58465;51.534;9.934;2023-08-21T12:13:36;100519.25;;;27.53;52.78
70841;BME280;58465;51.534;9.934;2023-08-21T12:16:01;100523.13;;;27.50;52.70
70841;BME280;58465;51.534;9.934;2023-08-21T12:18:27;100519.38;;;27.62;52.24
70841;BME280;58465;51.534;9.934;2023-08-21T12:20:52;100534.38;;;27.79;52.12
70841;BME280;58465;51.534;9.934;2023-08-21T12:23:17;100527.72;;;27.61;52.49
70841;BME280;58465;51.534;9.934;2023-08-21T12:25:42;100531.03;;;27.76;52.29
70841;BME280;58465;51.534;9.934;2023-08-21T12:28:07;100526.69;;;27.73;52.26
70841;BME280;58465;51.534;9.934;2023-08-21T12:30:33;100527.50;;;27.85;52.33
70841;BME280;58465;51.534;9.934;2023-08-21T12:32:58;100510.28;;;27.83;52.03
70841;BME280;58465;51.534;9.934;2023-08-21T12:35:23;100525.75;;;28.04;51.54
70841;BME280;58465;51.534;9.934;2023-08-21T12:37:49;100523.53;;;27.98;51.79
70841;BME280;58465;51.534;9.934;2023-08-21T12:40:14;100522.03;;;28.05;51.76
70841;BME280;58465;51.534;9.934;2023-08-21T12:42:39;100510.19;;;28.26;50.82
70841;BME280;58465;51.534;9.934;2023-08-21T12:45:04;100508.00;;;28.29;51.22
70841;BME280;58465;51.534;9.934;2023-08-21T12:47:30;100504.53;;;28.27;51.10
70841;BME280;58465;51.534;9.934;2023-08-21T12:49:55;100503.53;;;28.28;50.83
70841;BME280;58465;51.534;9.934;2023-08-21T12:52:20;100505.13;;;28.10;51.54
70841;BME280;58465;51.534;9.934;2023-08-21T12:54:46;100501.50;;;28.30;51.09